sensor_id;sensor_type;location;lat;lon;timestamp;P1;durP1;ratioP1;P2;durP2;ratioP2
7683;SDS011;3884;48.616;12.872;2024-02-16T00:02:27;18.77;;;16.77;;
7683;SDS011;3884;48.616;12.872;2024-02-16T00:04:53;23.70;;;18.10;;
7683;SDS011;3884;48.616;12.872;2024-02-16T00:07:20;21.60;;;17.40;;
7683;SDS011;3884;48.616;12.872;2024-02-16T00:09:47;21.27;;;17.33;;
7683;SDS011;3884;48.616;12.872;2024-02-16T00:12:14;23.07;;;18.43;;
7683;SDS011;3884;48.616;12.872;2024-02-16T00:14:41;23.53;;;18.77;;
7683;SDS011;3884;48.616;12.872;2024-02-16T00:17:11;21.67;;;17.83;;
7683;SDS011;3884;48.616;12.872;2024-02-16T00:19:39;23.67;;;18.30;;
7683;SDS011;3884;48.616;12.872;2024-02-16T00:22:06;21.40;;;17.60;;
7683;SDS011;3884;48.616;12.872;2024-02-16T00:24:33;20.27;;;18.10;;
7683;SDS011;3884;48.616;12.872;2024-02-16T00:27:01;20.60;;;17.83;;
7683;SDS011;3884;48.616;12.872;2024-02-16T00:29:28;21.37;;;18.00;;
7683;SDS011;3884;48.616;12.872;2024-02-16T00:31:55;22.33;;;17.63;;
7683;SDS011;3884;48.616;12.872;2024-02-16T00:34:24;19.67;;;17.53;;
7683;SDS011;3884;48.616;12.872;2024-02-16T00:36:52;18.83;;;16.70;;
7683;SDS011;3884;48.616;12.872;2024-02-16T00:39:19;19.43;;;16.90;;
7683;SDS011;3884;48.616;12.872;2024-02-16T00:41:47;21.87;;;18.47;;
7683;SDS011;3884;48.616;12.872;2024-02-16T00:44:13;21.70;;;16.70;;
7683;SDS011;3884;48.616;12.872;2024-02-16T00:46:40;18.77;;;16.77;;
7683;SDS011;3884;48.616;12.872;2024-02-16T00:49:07;20.83;;;16.77;;
7683;SDS011;3884;48.616;12.872;2024-02-16T00:51:35;19.57;;;15.83;;
7683;SDS011;3884;48.616;12.872;2024-02-16T00:54:03;21.30;;;16.73;;
7683;SDS011;3884;48.616;12.872;2024-02-16T00:56:30;20.27;;;15.90;;
7683;SDS011;3884;48.616;12.872;2024-02-16T00:58:58;19.93;;;16.10;;
7683;SDS011;3884;48.616;12.872;2024-02-16T01:01:25;18.40;;;16.07;;
7683;SDS011;3884;48.616;12.872;2024-02-16T01:03:51;19.40;;;16.37;;
7683;SDS011;3884;48.616;12.872;2024-02-16T01:06:19;18.57;;;15.17;;
7683;SDS011;3884;48.616;12.872;2024-02-16T01:08:46;19.47;;;16.57;;
7683;SDS011;3884;48.616;12.872;2024-02-16T01:11:14;20.77;;;16.20;;
7683;SDS011;3884;48.616;12.872;2024-02-16T01:13:41;16.80;;;14.93;;
7683;SDS011;3884;48.616;12.872;2024-02-16T01:16:08;18.00;;;16.07;;
7683;SDS011;3884;48.616;12.872;2024-02-16T01:18:35;19.00;;;16.10;;
7683;SDS011;3884;48.616;12.872;2024-02-16T01:21:02;21.03;;;17.20;;
7683;SDS011;3884;48.616;12.872;2024-02-16T01:23:30;19.90;;;17.20;;
7683;SDS011;3884;48.616;12.872;2024-02-16T01:25:57;21.57;;;16.33;;
7683;SDS011;3884;48.616;12.872;2024-02-16T01:28:25;18.97;;;15.97;;
7683;SDS011;3884;48.616;12.872;2024-02-16T01:30:52;19.57;;;17.40;;
7683;SDS011;3884;48.616;12.872;2024-02-16T01:33:21;21.37;;;16.33;;
7683;SDS011;3884;48.616;12.872;2024-02-16T01:35:48;18.10;;;16.07;;
7683;SDS011;3884;48.616;12.872;2024-02-16T01:38:15;19.40;;;16.63;;
7683;SDS011;3884;48.616;12.872;2024-02-16T01:40:42;18.83;;;16.20;;
7683;SDS011;3884;48.616;12.872;2024-02-16T01:43:10;21.50;;;17.37;;
7683;SDS011;3884;48.616;12.872;2024-02-16T01:45:39;19.60;;;17.60;;
7683;SDS011;3884;48.616;12.872;2024-02-16T01:48:08;22.27;;;19.00;;
7683;SDS011;3884;48.616;12.872;2024-02-16T01:50:35;22.70;;;18.60;;
7683;SDS011;3884;48.616;12.872;2024-02-16T01:53:03;21.87;;;18.43;;
7683;SDS011;3884;48.616;12.872;2024-02-16T01:55:31;25.43;;;20.60;;
7683;SDS011;3884;48.616;12.872;2024-02-16T01:57:58;23.33;;;18.43;;
7683;SDS011;3884;48.616;12.872;2024-02-16T02:00:26;24.27;;;19.53;;
7683;SDS011;3884;48.616;12.872;2024-02-16T02:02:54;21.20;;;18.70;;
7683;SDS011;3884;48.616;12.872;2024-02-16T02:05:22;23.53;;;19.03;;
7683;SDS011;3884;48.616;12.872;2024-02-16T02:07:50;27.93;;;20.37;;
7683;SDS011;3884;48.616;12.872;2024-02-16T02:10:18;26.63;;;21.33;;
7683;SDS011;3884;48.616;12.872;2024-02-16T02:12:45;22.57;;;19.47;;
7683;SDS011;3884;48.616;12.872;2024-02-16T02:15:13;25.77;;;20.83;;
7683;SDS011;3884;48.616;12.872;2024-02-16T02:17:40;23.20;;;19.83;;
7683;SDS011;3884;48.616;12.872;2024-02-16T02:20:10;23.37;;;19.43;;
7683;SDS011;3884;48.616;12.872;2024-02-16T02:22:39;19.63;;;17.63;;
7683;SDS011;3884;48.616;12.872;2024-02-16T02:25:07;21.40;;;18.03;;
7683;SDS011;3884;48.616;12.872;2024-02-16T02:27:49;19.57;;;17.03;;
7683;SDS011;3884;48.616;12.872;2024-02-16T02:30:17;16.13;;;14.50;;
7683;SDS011;3884;48.616;12.872;2024-02-16T02:32:43;18.43;;;14.60;;
7683;SDS011;3884;48.616;12.872;2024-02-16T02:35:10;17.50;;;13.63;;
7683;SDS011;3884;48.616;12.872;2024-02-16T02:37:42;16.83;;;13.63;;
7683;SDS011;3884;48.616;12.872;2024-02-16T02:40:11;15.23;;;13.47;;
7683;SDS011;3884;48.616;12.872;2024-02-16T02:42:39;16.83;;;13.07;;
7683;SDS011;3884;48.616;12.872;2024-02-16T02:45:07;14.53;;;12.50;;
7683;SDS011;3884;48.616;12.872;2024-02-16T02:47:34;15.67;;;13.00;;
7683;SDS011;3884;48.616;12.872;2024-02-16T02:50:01;14.93;;;12.97;;
7683;SDS011;3884;48.616;12.872;2024-02-16T02:52:29;16.13;;;12.67;;
7683;SDS011;3884;48.616;12.872;2024-02-16T02:54:58;16.23;;;12.53;;
7683;SDS011;3884;48.616;12.872;2024-02-16T02:57:26;15.43;;;11.93;;
7683;SDS011;3884;48.616;12.872;2024-02-16T02:59:53;15.07;;;11.60;;
7683;SDS011;3884;48.616;12.872;2024-02-16T03:02:29;13.23;;;11.63;;
7683;SDS011;3884;48.616;12.872;2024-02-16T03:04:56;12.77;;;11.40;;
7683;SDS011;3884;48.616;12.872;2024-02-16T03:07:22;14.63;;;11.53;;
7683;SDS011;3884;48.616;12.872;2024-02-16T03:09:51;13.37;;;11.97;;
7683;SDS011;3884;48.616;12.872;2024-02-16T03:12:19;13.13;;;11.67;;
7683;SDS011;3884;48.616;12.872;2024-02-16T03:14:47;13.63;;;11.63;;
7683;SDS011;3884;48.616;12.872;2024-02-16T03:17:14;13.73;;;11.67;;
7683;SDS011;3884;48.616;12.872;2024-02-16T03:19:40;13.13;;;11.73;;
7683;SDS011;3884;48.616;12.872;2024-02-16T03:22:07;15.20;;;11.57;;
7683;SDS011;3884;48.616;12.872;2024-02-16T03:24:34;15.93;;;12.73;;
7683;SDS011;3884;48.616;12.872;2024-02-16T03:27:01;15.73;;;12.23;;
7683;SDS011;3884;48.616;12.872;2024-02-16T03:29:29;15.87;;;12.70;;
7683;SDS011;3884;48.616;12.872;2024-02-16T03:31:56;14.20;;;12.27;;
7683;SDS011;3884;48.616;12.872;2024-02-16T03:34:23;13.40;;;12.00;;
7683;SDS011;3884;48.616;12.872;2024-02-16T03:36:50;13.47;;;12.13;;
7683;SDS011;3884;48.616;12.872;2024-02-16T03:39:17;14.70;;;12.53;;
7683;SDS011;3884;48.616;12.872;2024-02-16T03:41:45;14.50;;;12.43;;
7683;SDS011;3884;48.616;12.872;2024-02-16T03:44:13;16.63;;;13.23;;
7683;SDS011;3884;48.616;12.872;2024-02-16T03:46:42;15.43;;;13.43;;
7683;SDS011;3884;48.616;12.872;2024-02-16T03:49:09;14.90;;;13.37;;
7683;SDS011;3884;48.616;12.872;2024-02-16T03:51:36;17.50;;;14.63;;
7683;SDS011;3884;48.616;12.872;2024-02-16T03:54:03;17.77;;;14.90;;
7683;SDS011;3884;48.616;12.872;2024-02-16T03:56:30;17.63;;;14.60;;
7683;SDS011;3884;48.616;12.872;2024-02-16T03:58:57;16.87;;;14.47;;
7683;SDS011;3884;48.616;12.872;2024-02-16T04:01:24;17.33;;;14.30;;
7683;SDS011;3884;48.616;12.872;2024-02-16T04:03:52;14.97;;;12.87;;
7683;SDS011;3884;48.616;12.872;2024-02-16T04:06:19;14.97;;;12.60;;
7683;SDS011;3884;48.616;12.872;2024-02-16T04:08:46;15.20;;;11.97;;
7683;SDS011;3884;48.616;12.872;2024-02-16T04:11:13;17.20;;;13.57;;
7683;SDS011;3884;48.616;12.872;2024-02-16T04:13:41;13.83;;;11.90;;
7683;SDS011;3884;48.616;12.872;2024-02-16T04:16:08;13.93;;;11.90;;
7683;SDS011;3884;48.616;12.872;2024-02-16T04:18:34;13.97;;;11.50;;
7683;SDS011;3884;48.616;12.872;2024-02-16T04:21:03;13.50;;;11.67;;
7683;SDS011;3884;48.616;12.872;2024-02-16T04:23:30;14.23;;;11.63;;
7683;SDS011;3884;48.616;12.872;2024-02-16T04:25:57;15.83;;;13.60;;
7683;SDS011;3884;48.616;12.872;2024-02-16T04:28:24;16.60;;;13.03;;
7683;SDS011;3884;48.616;12.872;2024-02-16T04:30:50;14.57;;;12.90;;
7683;SDS011;3884;48.616;12.872;2024-02-16T04:33:17;16.93;;;14.10;;
7683;SDS011;3884;48.616;12.872;2024-02-16T04:35:44;19.13;;;16.13;;
7683;SDS011;3884;48.616;12.872;2024-02-16T04:38:13;19.07;;;15.13;;
7683;SDS011;3884;48.616;12.872;2024-02-16T04:40:40;17.13;;;15.17;;
7683;SDS011;3884;48.616;12.872;2024-02-16T04:43:07;18.20;;;15.23;;
7683;SDS011;3884;48.616;12.872;2024-02-16T04:45:34;20.67;;;14.97;;
7683;SDS011;3884;48.616;12.872;2024-02-16T04:48:05;20.93;;;18.33;;
7683;SDS011;3884;48.616;12.872;2024-02-16T04:50:32;21.63;;;17.37;;
7683;SDS011;3884;48.616;12.872;2024-02-16T04:53:00;19.83;;;15.97;;
7683;SDS011;3884;48.616;12.872;2024-02-16T04:55:29;16.07;;;13.90;;
7683;SDS011;3884;48.616;12.872;2024-02-16T04:57:56;17.87;;;14.43;;
7683;SDS011;3884;48.616;12.872;2024-02-16T05:00:23;18.40;;;14.40;;
7683;SDS011;3884;48.616;12.872;2024-02-16T05:02:50;18.30;;;15.33;;
7683;SDS011;3884;48.616;12.872;2024-02-16T05:05:18;17.10;;;15.27;;
7683;SDS011;3884;48.616;12.872;2024-02-16T05:07:46;19.70;;;16.13;;
7683;SDS011;3884;48.616;12.872;2024-02-16T05:10:14;16.67;;;14.17;;
7683;SDS011;3884;48.616;12.872;2024-02-16T05:12:42;16.67;;;14.87;;
7683;SDS011;3884;48.616;12.872;2024-02-16T05:15:09;15.60;;;13.93;;
7683;SDS011;3884;48.616;12.872;2024-02-16T05:17:38;20.90;;;18.70;;
7683;SDS011;3884;48.616;12.872;2024-02-16T05:20:08;19.77;;;16.97;;
7683;SDS011;3884;48.616;12.872;2024-02-16T05:22:40;21.00;;;17.60;;
7683;SDS011;3884;48.616;12.872;2024-02-16T05:25:10;28.83;;;21.03;;
7683;SDS011;3884;48.616;12.872;2024-02-16T05:27:37;25.23;;;21.07;;
7683;SDS011;3884;48.616;12.872;2024-02-16T05:30:08;18.77;;;16.77;;
7683;SDS011;3884;48.616;12.872;2024-02-16T05:32:38;20.67;;;16.70;;
7683;SDS011;3884;48.616;12.872;2024-02-16T05:35:05;31.37;;;23.87;;
7683;SDS011;3884;48.616;12.872;2024-02-16T05:37:36;23.00;;;17.57;;
7683;SDS011;3884;48.616;12.872;2024-02-16T05:40:06;23.40;;;18.03;;
7683;SDS011;3884;48.616;12.872;2024-02-16T05:42:44;28.60;;;20.93;;
7683;SDS011;3884;48.616;12.872;2024-02-16T05:45:13;27.03;;;20.23;;
7683;SDS011;3884;48.616;12.872;2024-02-16T05:47:41;21.07;;;17.70;;
7683;SDS011;3884;48.616;12.872;2024-02-16T05:50:08;22.93;;;17.73;;
7683;SDS011;3884;48.616;12.872;2024-02-16T05:52:37;21.13;;;16.67;;
7683;SDS011;3884;48.616;12.872;2024-02-16T05:55:04;22.50;;;18.90;;
7683;SDS011;3884;48.616;12.872;2024-02-16T05:57:32;25.37;;;19.23;;
7683;SDS011;3884;48.616;12.872;2024-02-16T05:59:59;24.20;;;19.07;;
7683;SDS011;3884;48.616;12.872;2024-02-16T06:02:31;17.40;;;14.23;;
7683;SDS011;3884;48.616;12.872;2024-02-16T06:04:58;17.03;;;14.10;;
7683;SDS011;3884;48.616;12.872;2024-02-16T06:07:25;19.43;;;16.57;;
7683;SDS011;3884;48.616;12.872;2024-02-16T06:09:52;26.00;;;19.83;;
7683;SDS011;3884;48.616;12.872;2024-02-16T06:12:20;24.40;;;18.60;;
7683;SDS011;3884;48.616;12.872;2024-02-16T06:14:47;26.80;;;20.63;;
7683;SDS011;3884;48.616;12.872;2024-02-16T06:17:14;25.97;;;20.07;;
7683;SDS011;3884;48.616;12.872;2024-02-16T06:19:43;22.97;;;18.63;;
7683;SDS011;3884;48.616;12.872;2024-02-16T06:22:10;21.37;;;18.87;;
7683;SDS011;3884;48.616;12.872;2024-02-16T06:24:37;19.70;;;17.60;;
7683;SDS011;3884;48.616;12.872;2024-02-16T06:27:04;21.27;;;18.67;;
7683;SDS011;3884;48.616;12.872;2024-02-16T06:29:33;20.80;;;18.03;;
7683;SDS011;3884;48.616;12.872;2024-02-16T06:32:00;20.97;;;17.70;;
7683;SDS011;3884;48.616;12.872;2024-02-16T06:34:28;24.00;;;20.30;;
7683;SDS011;3884;48.616;12.872;2024-02-16T06:36:57;23.07;;;19.47;;
7683;SDS011;3884;48.616;12.872;2024-02-16T06:39:24;23.73;;;18.67;;
7683;SDS011;3884;48.616;12.872;2024-02-16T06:41:54;24.20;;;20.03;;
7683;SDS011;3884;48.616;12.872;2024-02-16T06:44:20;28.30;;;20.67;;
7683;SDS011;3884;48.616;12.872;2024-02-16T06:46:47;27.63;;;21.30;;
7683;SDS011;3884;48.616;12.872;2024-02-16T06:49:14;22.47;;;19.47;;
7683;SDS011;3884;48.616;12.872;2024-02-16T06:51:41;21.33;;;18.73;;
7683;SDS011;3884;48.616;12.872;2024-02-16T06:54:11;29.90;;;25.87;;
7683;SDS011;3884;48.616;12.872;2024-02-16T06:56:39;47.80;;;42.83;;
7683;SDS011;3884;48.616;12.872;2024-02-16T06:59:06;21.33;;;16.40;;
7683;SDS011;3884;48.616;12.872;2024-02-16T07:01:33;23.20;;;18.17;;
7683;SDS011;3884;48.616;12.872;2024-02-16T07:04:00;19.90;;;16.37;;
7683;SDS011;3884;48.616;12.872;2024-02-16T07:06:27;24.47;;;20.33;;
7683;SDS011;3884;48.616;12.872;2024-02-16T07:08:54;24.87;;;20.20;;
7683;SDS011;3884;48.616;12.872;2024-02-16T07:11:22;21.30;;;18.50;;
7683;SDS011;3884;48.616;12.872;2024-02-16T07:13:49;30.17;;;24.73;;
7683;SDS011;3884;48.616;12.872;2024-02-16T07:16:16;25.47;;;22.17;;
7683;SDS011;3884;48.616;12.872;2024-02-16T07:18:43;35.43;;;28.53;;
7683;SDS011;3884;48.616;12.872;2024-02-16T07:21:10;34.57;;;28.60;;
7683;SDS011;3884;48.616;12.872;2024-02-16T07:23:37;35.93;;;28.93;;
7683;SDS011;3884;48.616;12.872;2024-02-16T07:26:04;35.00;;;27.23;;
7683;SDS011;3884;48.616;12.872;2024-02-16T07:28:34;35.33;;;28.40;;
7683;SDS011;3884;48.616;12.872;2024-02-16T07:31:01;33.40;;;27.20;;
7683;SDS011;3884;48.616;12.872;2024-02-16T07:33:28;35.13;;;26.97;;
7683;SDS011;3884;48.616;12.872;2024-02-16T07:35:54;38.20;;;28.07;;
7683;SDS011;3884;48.616;12.872;2024-02-16T07:38:21;35.57;;;27.87;;
7683;SDS011;3884;48.616;12.872;2024-02-16T07:40:49;34.17;;;26.37;;
7683;SDS011;3884;48.616;12.872;2024-02-16T07:43:16;33.10;;;26.30;;
7683;SDS011;3884;48.616;12.872;2024-02-16T07:45:45;32.57;;;26.43;;
7683;SDS011;3884;48.616;12.872;2024-02-16T07:48:15;35.27;;;26.57;;
7683;SDS011;3884;48.616;12.872;2024-02-16T07:50:42;33.27;;;25.90;;
7683;SDS011;3884;48.616;12.872;2024-02-16T07:53:09;32.63;;;25.87;;
7683;SDS011;3884;48.616;12.872;2024-02-16T07:55:37;30.67;;;25.03;;
7683;SDS011;3884;48.616;12.872;2024-02-16T07:58:03;34.10;;;25.77;;
7683;SDS011;3884;48.616;12.872;2024-02-16T08:00:30;31.67;;;25.83;;
7683;SDS011;3884;48.616;12.872;2024-02-16T08:03:00;33.67;;;25.43;;
7683;SDS011;3884;48.616;12.872;2024-02-16T08:08:22;33.43;;;24.43;;
7683;SDS011;3884;48.616;12.872;2024-02-16T08:10:51;32.17;;;24.73;;
7683;SDS011;3884;48.616;12.872;2024-02-16T08:13:18;31.37;;;26.50;;
7683;SDS011;3884;48.616;12.872;2024-02-16T08:15:46;28.97;;;23.67;;
7683;SDS011;3884;48.616;12.872;2024-02-16T08:18:16;27.53;;;22.37;;
7683;SDS011;3884;48.616;12.872;2024-02-16T08:20:43;27.60;;;22.10;;
7683;SDS011;3884;48.616;12.872;2024-02-16T08:23:10;28.47;;;21.73;;
7683;SDS011;3884;48.616;12.872;2024-02-16T08:25:37;24.20;;;21.50;;
7683;SDS011;3884;48.616;12.872;2024-02-16T08:28:07;23.67;;;20.50;;
7683;SDS011;3884;48.616;12.872;2024-02-16T08:30:35;25.43;;;20.27;;
7683;SDS011;3884;48.616;12.872;2024-02-16T08:33:06;23.03;;;19.73;;
7683;SDS011;3884;48.616;12.872;2024-02-16T08:35:34;28.13;;;22.43;;
7683;SDS011;3884;48.616;12.872;2024-02-16T08:38:01;26.50;;;20.97;;
7683;SDS011;3884;48.616;12.872;2024-02-16T08:40:28;24.73;;;20.93;;
7683;SDS011;3884;48.616;12.872;2024-02-16T08:42:55;24.97;;;19.87;;
7683;SDS011;3884;48.616;12.872;2024-02-16T08:45:22;21.50;;;18.90;;
7683;SDS011;3884;48.616;12.872;2024-02-16T08:47:49;23.77;;;20.00;;
7683;SDS011;3884;48.616;12.872;2024-02-16T08:50:16;23.47;;;18.30;;
7683;SDS011;3884;48.616;12.872;2024-02-16T08:52:44;22.20;;;18.93;;
7683;SDS011;3884;48.616;12.872;2024-02-16T08:55:11;21.83;;;18.23;;
7683;SDS011;3884;48.616;12.872;2024-02-16T08:57:38;21.73;;;17.77;;
7683;SDS011;3884;48.616;12.872;2024-02-16T09:00:05;22.30;;;18.47;;
7683;SDS011;3884;48.616;12.872;2024-02-16T09:02:34;23.63;;;18.67;;
7683;SDS011;3884;48.616;12.872;2024-02-16T09:05:01;21.83;;;18.17;;
7683;SDS011;3884;48.616;12.872;2024-02-16T09:07:28;19.73;;;16.70;;
7683;SDS011;3884;48.616;12.872;2024-02-16T09:09:57;23.03;;;17.83;;
7683;SDS011;3884;48.616;12.872;2024-02-16T09:12:24;19.47;;;16.53;;
7683;SDS011;3884;48.616;12.872;2024-02-16T09:14:51;21.57;;;17.30;;
7683;SDS011;3884;48.616;12.872;2024-02-16T09:17:18;19.30;;;16.87;;
7683;SDS011;3884;48.616;12.872;2024-02-16T09:19:45;20.47;;;16.93;;
7683;SDS011;3884;48.616;12.872;2024-02-16T09:22:12;20.67;;;16.47;;
7683;SDS011;3884;48.616;12.872;2024-02-16T09:24:39;18.87;;;15.67;;
7683;SDS011;3884;48.616;12.872;2024-02-16T09:27:08;20.30;;;16.23;;
7683;SDS011;3884;48.616;12.872;2024-02-16T09:29:35;16.97;;;14.90;;
7683;SDS011;3884;48.616;12.872;2024-02-16T09:32:02;17.50;;;15.10;;
7683;SDS011;3884;48.616;12.872;2024-02-16T09:34:29;18.77;;;15.07;;
7683;SDS011;3884;48.616;12.872;2024-02-16T09:36:56;17.93;;;14.83;;
7683;SDS011;3884;48.616;12.872;2024-02-16T09:39:22;19.40;;;15.07;;
7683;SDS011;3884;48.616;12.872;2024-02-16T09:41:53;18.63;;;14.00;;
7683;SDS011;3884;48.616;12.872;2024-02-16T09:44:22;18.53;;;15.07;;
7683;SDS011;3884;48.616;12.872;2024-02-16T09:46:50;21.17;;;16.30;;
7683;SDS011;3884;48.616;12.872;2024-02-16T09:49:19;18.17;;;15.47;;
7683;SDS011;3884;48.616;12.872;2024-02-16T09:51:46;18.33;;;15.90;;
7683;SDS011;3884;48.616;12.872;2024-02-16T09:54:13;17.23;;;14.30;;
7683;SDS011;3884;48.616;12.872;2024-02-16T09:56:40;17.20;;;15.07;;
7683;SDS011;3884;48.616;12.872;2024-02-16T09:59:07;17.77;;;15.30;;
7683;SDS011;3884;48.616;12.872;2024-02-16T10:01:36;16.67;;;14.37;;
7683;SDS011;3884;48.616;12.872;2024-02-16T10:04:05;19.00;;;15.00;;
7683;SDS011;3884;48.616;12.872;2024-02-16T10:06:33;14.90;;;12.87;;
7683;SDS011;3884;48.616;12.872;2024-02-16T10:09:11;16.63;;;13.67;;
7683;SDS011;3884;48.616;12.872;2024-02-16T10:11:48;17.03;;;15.23;;
7683;SDS011;3884;48.616;12.872;2024-02-16T10:14:15;17.07;;;15.00;;
7683;SDS011;3884;48.616;12.872;2024-02-16T10:16:43;17.17;;;15.00;;
7683;SDS011;3884;48.616;12.872;2024-02-16T10:19:10;17.70;;;14.70;;
7683;SDS011;3884;48.616;12.872;2024-02-16T10:21:37;16.43;;;14.10;;
7683;SDS011;3884;48.616;12.872;2024-02-16T10:24:05;17.53;;;14.37;;
7683;SDS011;3884;48.616;12.872;2024-02-16T10:26:34;18.83;;;14.17;;
7683;SDS011;3884;48.616;12.872;2024-02-16T10:29:02;17.30;;;14.20;;
7683;SDS011;3884;48.616;12.872;2024-02-16T10:31:30;16.33;;;14.63;;
7683;SDS011;3884;48.616;12.872;2024-02-16T10:34:00;18.40;;;15.40;;
7683;SDS011;3884;48.616;12.872;2024-02-16T10:36:30;16.27;;;13.97;;
7683;SDS011;3884;48.616;12.872;2024-02-16T10:39:00;17.60;;;13.83;;
7683;SDS011;3884;48.616;12.872;2024-02-16T10:41:30;16.27;;;14.20;;
7683;SDS011;3884;48.616;12.872;2024-02-16T10:44:01;18.90;;;14.83;;
7683;SDS011;3884;48.616;12.872;2024-02-16T10:46:28;16.40;;;14.43;;
7683;SDS011;3884;48.616;12.872;2024-02-16T10:48:57;16.57;;;13.90;;
7683;SDS011;3884;48.616;12.872;2024-02-16T10:51:28;16.40;;;14.13;;
7683;SDS011;3884;48.616;12.872;2024-02-16T10:53:57;17.03;;;15.10;;
7683;SDS011;3884;48.616;12.872;2024-02-16T10:56:27;16.90;;;14.83;;
7683;SDS011;3884;48.616;12.872;2024-02-16T10:58:59;17.77;;;14.40;;
7683;SDS011;3884;48.616;12.872;2024-02-16T11:01:27;16.30;;;14.20;;
7683;SDS011;3884;48.616;12.872;2024-02-16T11:04:00;17.00;;;13.80;;
7683;SDS011;3884;48.616;12.872;2024-02-16T11:06:29;22.13;;;18.87;;
7683;SDS011;3884;48.616;12.872;2024-02-16T11:09:01;21.70;;;18.27;;
7683;SDS011;3884;48.616;12.872;2024-02-16T11:11:33;22.00;;;18.37;;
7683;SDS011;3884;48.616;12.872;2024-02-16T11:14:01;24.13;;;18.07;;
7683;SDS011;3884;48.616;12.872;2024-02-16T11:16:28;21.13;;;17.33;;
7683;SDS011;3884;48.616;12.872;2024-02-16T11:18:56;21.73;;;17.77;;
7683;SDS011;3884;48.616;12.872;2024-02-16T11:21:23;19.63;;;17.47;;
7683;SDS011;3884;48.616;12.872;2024-02-16T11:23:52;25.80;;;18.67;;
7683;SDS011;3884;48.616;12.872;2024-02-16T11:26:19;22.53;;;18.23;;
7683;SDS011;3884;48.616;12.872;2024-02-16T11:28:49;22.63;;;18.13;;
7683;SDS011;3884;48.616;12.872;2024-02-16T11:31:16;22.07;;;18.80;;
7683;SDS011;3884;48.616;12.872;2024-02-16T11:33:44;21.80;;;17.97;;
7683;SDS011;3884;48.616;12.872;2024-02-16T11:36:13;20.90;;;17.60;;
7683;SDS011;3884;48.616;12.872;2024-02-16T11:38:45;21.80;;;18.33;;
7683;SDS011;3884;48.616;12.872;2024-02-16T11:41:15;21.03;;;17.77;;
7683;SDS011;3884;48.616;12.872;2024-02-16T11:43:42;20.13;;;17.07;;
7683;SDS011;3884;48.616;12.872;2024-02-16T11:46:11;19.83;;;17.00;;
7683;SDS011;3884;48.616;12.872;2024-02-16T11:48:47;20.10;;;16.87;;
7683;SDS011;3884;48.616;12.872;2024-02-16T11:51:18;21.53;;;17.20;;
7683;SDS011;3884;48.616;12.872;2024-02-16T11:53:55;20.63;;;17.10;;
7683;SDS011;3884;48.616;12.872;2024-02-16T11:56:27;22.40;;;18.37;;
7683;SDS011;3884;48.616;12.872;2024-02-16T12:29:02;18.73;;;15.97;;
7683;SDS011;3884;48.616;12.872;2024-02-16T12:31:29;20.13;;;16.13;;
7683;SDS011;3884;48.616;12.872;2024-02-16T12:33:56;19.20;;;16.70;;
7683;SDS011;3884;48.616;12.872;2024-02-16T12:36:25;19.23;;;16.90;;
7683;SDS011;3884;48.616;12.872;2024-02-16T12:38:59;20.50;;;17.67;;
7683;SDS011;3884;48.616;12.872;2024-02-16T12:41:28;17.93;;;15.97;;
7683;SDS011;3884;48.616;12.872;2024-02-16T12:43:59;17.57;;;14.60;;
7683;SDS011;3884;48.616;12.872;2024-02-16T12:46:29;15.73;;;13.43;;
7683;SDS011;3884;48.616;12.872;2024-02-16T12:48:55;20.60;;;14.73;;
7683;SDS011;3884;48.616;12.872;2024-02-16T12:51:23;14.43;;;12.93;;
7683;SDS011;3884;48.616;12.872;2024-02-16T12:53:50;15.90;;;13.40;;
7683;SDS011;3884;48.616;12.872;2024-02-16T12:56:17;16.27;;;13.00;;
7683;SDS011;3884;48.616;12.872;2024-02-16T13:01:41;14.97;;;13.37;;
7683;SDS011;3884;48.616;12.872;2024-02-16T13:04:10;13.33;;;11.63;;
7683;SDS011;3884;48.616;12.872;2024-02-16T13:06:52;13.27;;;10.83;;
7683;SDS011;3884;48.616;12.872;2024-02-16T13:09:24;12.93;;;11.00;;
7683;SDS011;3884;48.616;12.872;2024-02-16T13:12:09;13.20;;;11.80;;
7683;SDS011;3884;48.616;12.872;2024-02-16T13:40:23;13.63;;;11.90;;
7683;SDS011;3884;48.616;12.872;2024-02-16T13:43:05;12.50;;;10.73;;
7683;SDS011;3884;48.616;12.872;2024-02-16T13:45:49;13.70;;;11.90;;
7683;SDS011;3884;48.616;12.872;2024-02-16T13:48:33;13.53;;;11.20;;
7683;SDS011;3884;48.616;12.872;2024-02-16T13:51:12;13.97;;;10.70;;
7683;SDS011;3884;48.616;12.872;2024-02-16T14:23:13;11.20;;;9.33;;
7683;SDS011;3884;48.616;12.872;2024-02-16T14:25:55;10.90;;;9.17;;
7683;SDS011;3884;48.616;12.872;2024-02-16T14:29:02;11.73;;;9.07;;
7683;SDS011;3884;48.616;12.872;2024-02-16T14:31:38;11.37;;;8.80;;
7683;SDS011;3884;48.616;12.872;2024-02-16T14:34:19;10.03;;;8.97;;
7683;SDS011;3884;48.616;12.872;2024-02-16T14:36:48;10.10;;;8.80;;
7683;SDS011;3884;48.616;12.872;2024-02-16T14:42:18;12.50;;;10.70;;
7683;SDS011;3884;48.616;12.872;2024-02-16T14:44:47;11.03;;;9.93;;
7683;SDS011;3884;48.616;12.872;2024-02-16T14:47:15;14.70;;;11.40;;
7683;SDS011;3884;48.616;12.872;2024-02-16T14:52:53;11.63;;;10.30;;
7683;SDS011;3884;48.616;12.872;2024-02-16T14:55:37;10.97;;;9.90;;
7683;SDS011;3884;48.616;12.872;2024-02-16T14:58:06;11.63;;;10.37;;
7683;SDS011;3884;48.616;12.872;2024-02-16T15:00:34;13.17;;;10.07;;
7683;SDS011;3884;48.616;12.872;2024-02-16T15:03:05;11.73;;;10.53;;
7683;SDS011;3884;48.616;12.872;2024-02-16T15:05:46;13.50;;;10.03;;
7683;SDS011;3884;48.616;12.872;2024-02-16T15:08:29;11.47;;;10.27;;
7683;SDS011;3884;48.616;12.872;2024-02-16T15:11:01;11.63;;;10.17;;
7683;SDS011;3884;48.616;12.872;2024-02-16T15:16:14;12.10;;;11.00;;
7683;SDS011;3884;48.616;12.872;2024-02-16T15:18:43;11.10;;;10.00;;
7683;SDS011;3884;48.616;12.872;2024-02-16T15:21:13;12.80;;;11.27;;
7683;SDS011;3884;48.616;12.872;2024-02-16T15:24:08;13.43;;;11.93;;
7683;SDS011;3884;48.616;12.872;2024-02-16T15:26:36;15.20;;;12.13;;
7683;SDS011;3884;48.616;12.872;2024-02-16T15:29:05;13.50;;;12.10;;
7683;SDS011;3884;48.616;12.872;2024-02-16T15:31:32;14.20;;;11.90;;
7683;SDS011;3884;48.616;12.872;2024-02-16T15:34:11;13.10;;;11.67;;
7683;SDS011;3884;48.616;12.872;2024-02-16T15:37:03;11.53;;;10.33;;
7683;SDS011;3884;48.616;12.872;2024-02-16T15:39:53;14.23;;;11.33;;
7683;SDS011;3884;48.616;12.872;2024-02-16T15:42:29;12.03;;;10.07;;
7683;SDS011;3884;48.616;12.872;2024-02-16T15:47:44;12.77;;;10.43;;
7683;SDS011;3884;48.616;12.872;2024-02-16T15:50:11;12.67;;;11.23;;
7683;SDS011;3884;48.616;12.872;2024-02-16T15:52:41;12.50;;;11.20;;
7683;SDS011;3884;48.616;12.872;2024-02-16T15:55:09;14.10;;;11.33;;
7683;SDS011;3884;48.616;12.872;2024-02-16T15:57:52;14.10;;;11.97;;
7683;SDS011;3884;48.616;12.872;2024-02-16T16:00:26;12.77;;;11.43;;
7683;SDS011;3884;48.616;12.872;2024-02-16T16:02:58;13.73;;;12.20;;
7683;SDS011;3884;48.616;12.872;2024-02-16T16:05:28;15.23;;;12.63;;
7683;SDS011;3884;48.616;12.872;2024-02-16T16:07:59;15.30;;;11.70;;
7683;SDS011;3884;48.616;12.872;2024-02-16T16:10:32;14.50;;;12.70;;
7683;SDS011;3884;48.616;12.872;2024-02-16T16:13:02;24.53;;;14.17;;
7683;SDS011;3884;48.616;12.872;2024-02-16T16:15:37;18.23;;;15.87;;
7683;SDS011;3884;48.616;12.872;2024-02-16T16:18:11;17.57;;;15.57;;
7683;SDS011;3884;48.616;12.872;2024-02-16T16:20:44;16.07;;;14.37;;
7683;SDS011;3884;48.616;12.872;2024-02-16T16:23:20;15.47;;;13.63;;
7683;SDS011;3884;48.616;12.872;2024-02-16T16:25:49;15.90;;;14.10;;
7683;SDS011;3884;48.616;12.872;2024-02-16T21:11:14;20.77;;;17.30;;
7683;SDS011;3884;48.616;12.872;2024-02-16T21:13:52;18.47;;;15.83;;